createdAt,value
2022-10-04T00:03:19.385Z,14.30
2022-10-04T00:13:51.487Z,14.40
2022-10-04T00:24:22.489Z,14.90
2022-10-04T00:34:50.443Z,14.50
2022-10-04T00:45:32.396Z,14.60
2022-10-04T00:56:00.474Z,14.80
2022-10-04T01:06:22.979Z,14.90
2022-10-04T01:16:46.561Z,14.60
2022-10-04T01:27:36.344Z,14.20
2022-10-04T01:37:57.950Z,14.10
2022-10-04T01:48:25.180Z,14.00
2022-10-04T01:58:50.015Z,13.80
2022-10-04T02:09:16.027Z,13.70
2022-10-04T02:19:39.666Z,13.70
2022-10-04T02:30:04.253Z,13.40
2022-10-04T02:40:31.739Z,13.40
2022-10-04T02:50:57.953Z,13.60
2022-10-04T03:01:27.562Z,13.30
2022-10-04T03:11:51.888Z,12.80
2022-10-04T03:22:13.454Z,12.90
2022-10-04T03:32:36.178Z,12.70
2022-10-04T03:42:59.107Z,12.50
2022-10-04T03:53:28.893Z,12.40
2022-10-04T04:03:58.627Z,12.30
2022-10-04T04:14:26.392Z,12.30
2022-10-04T04:24:49.667Z,12.40
2022-10-04T04:35:23.419Z,12.80
2022-10-04T04:46:02.902Z,12.80
2022-10-04T04:56:32.074Z,12.60
2022-10-04T05:07:05.144Z,12.40
2022-10-04T05:17:36.051Z,12.40
2022-10-04T05:27:57.769Z,12.70
2022-10-04T05:38:30.774Z,12.60
2022-10-04T05:48:57.237Z,13.20
2022-10-04T05:59:35.237Z,13.50
2022-10-04T06:10:08.399Z,14.00
2022-10-04T06:20:57.835Z,14.00
2022-10-04T06:31:55.322Z,14.50
2022-10-04T06:42:48.659Z,14.50
2022-10-04T06:53:22.307Z,14.30
2022-10-04T07:03:51.746Z,14.10
2022-10-04T07:14:16.623Z,14.00
2022-10-04T07:24:51.041Z,13.90
2022-10-04T07:35:32.835Z,14.30
2022-10-04T07:46:04.459Z,14.30
2022-10-04T07:56:32.458Z,14.60
2022-10-04T08:07:00.415Z,14.70
2022-10-04T08:17:42.906Z,14.50
2022-10-04T08:28:39.051Z,14.80
2022-10-04T08:39:01.278Z,15.00
2022-10-04T08:49:47.202Z,15.20
2022-10-04T09:00:20.324Z,15.00
2022-10-04T09:11:26.604Z,15.80
2022-10-04T09:22:10.623Z,15.90
2022-10-04T09:33:03.963Z,17.80
2022-10-04T09:43:57.352Z,16.80
2022-10-04T09:54:57.720Z,17.90
2022-10-04T10:05:45.956Z,17.70
2022-10-04T10:16:25.555Z,18.00
2022-10-04T10:27:03.599Z,17.30
2022-10-04T10:37:40.923Z,17.00
2022-10-04T10:48:13.496Z,17.70
2022-10-04T10:58:56.131Z,17.20
2022-10-04T11:09:30.713Z,17.80
2022-10-04T11:20:24.333Z,18.20
2022-10-04T11:31:23.909Z,18.30
2022-10-04T11:41:55.791Z,17.90
2022-10-04T11:52:44.033Z,18.30
2022-10-04T12:03:42.263Z,17.70
2022-10-04T12:14:14.355Z,17.90
2022-10-04T12:25:16.579Z,17.90
2022-10-04T12:36:03.301Z,18.40
2022-10-04T12:46:38.038Z,20.10
2022-10-04T12:57:04.098Z,19.30
2022-10-04T13:07:38.109Z,19.20
2022-10-04T13:18:22.768Z,18.80
2022-10-04T13:28:53.846Z,18.60
2022-10-04T13:39:41.554Z,19.20
2022-10-04T13:50:27.959Z,19.30
2022-10-04T14:01:09.933Z,20.10
2022-10-04T14:12:08.846Z,19.00
2022-10-04T14:23:00.836Z,19.40
2022-10-04T14:33:54.695Z,20.60
2022-10-04T14:44:51.592Z,20.30
2022-10-04T14:55:34.522Z,19.70
2022-10-04T15:06:09.815Z,19.70
2022-10-04T15:16:44.109Z,19.40
2022-10-04T15:27:55.492Z,19.60
2022-10-04T15:38:24.302Z,19.20
2022-10-04T15:49:03.963Z,18.80
2022-10-04T15:59:38.699Z,18.30
2022-10-04T16:10:13.171Z,18.40
2022-10-04T16:20:57.611Z,18.10
2022-10-04T16:31:28.342Z,17.00
2022-10-04T16:41:59.728Z,16.40
2022-10-04T16:52:48.445Z,16.10
2022-10-04T17:03:23.216Z,15.70
2022-10-04T17:13:56.866Z,15.40
2022-10-04T17:24:26.738Z,15.20
2022-10-04T17:35:01.691Z,14.90
2022-10-04T17:46:02.079Z,14.70
2022-10-04T17:56:31.092Z,14.50
2022-10-04T18:06:57.033Z,14.40
2022-10-04T18:17:33.010Z,13.60
2022-10-04T18:28:04.659Z,14.10
2022-10-04T18:38:30.352Z,14.20
2022-10-04T18:48:58.056Z,14.20
2022-10-04T18:59:51.227Z,14.10
2022-10-04T19:10:23.036Z,13.90
2022-10-04T19:20:52.727Z,13.70
2022-10-04T19:31:28.382Z,13.70
2022-10-04T19:42:03.426Z,13.60
2022-10-04T19:52:32.823Z,13.30
2022-10-04T20:02:58.551Z,13.10
2022-10-04T20:13:27.729Z,12.90
2022-10-04T20:23:57.332Z,12.90
2022-10-04T20:34:36.880Z,12.30
2022-10-04T20:45:20.878Z,12.60
2022-10-04T20:55:44.285Z,12.50
2022-10-04T21:06:13.497Z,12.40
2022-10-04T21:16:59.919Z,12.30
2022-10-04T21:27:34.987Z,12.30
2022-10-04T21:38:00.210Z,12.30
2022-10-04T21:48:23.604Z,12.50
2022-10-04T21:58:45.170Z,12.40
2022-10-04T22:09:11.931Z,12.10
2022-10-04T22:19:35.605Z,11.90
2022-10-04T22:30:02.917Z,12.00
2022-10-04T22:40:27.581Z,12.00
2022-10-04T22:50:54.161Z,11.90
2022-10-04T23:01:21.957Z,11.70
2022-10-04T23:11:52.097Z,11.70
2022-10-04T23:22:21.418Z,11.30
2022-10-04T23:32:49.456Z,11.40
2022-10-04T23:43:18.497Z,11.50
2022-10-04T23:53:47.093Z,11.30
